sensor_id;sensor_type;location;lat;lon;timestamp;P1;durP1;ratioP1;P2;durP2;ratioP2
13204;SDS011;6667;52.634;9.226;2023-09-19T00:01:50;2.23;;;1.67;;
13204;SDS011;6667;52.634;9.226;2023-09-19T00:04:18;3.40;;;2.27;;
13204;SDS011;6667;52.634;9.226;2023-09-19T00:06:48;2.07;;;1.93;;
13204;SDS011;6667;52.634;9.226;2023-09-19T00:09:15;3.20;;;2.23;;
13204;SDS011;6667;52.634;9.226;2023-09-19T00:11:41;3.70;;;2.15;;
13204;SDS011;6667;52.634;9.226;2023-09-19T00:14:09;3.80;;;2.40;;
13204;SDS011;6667;52.634;9.226;2023-09-19T00:16:39;3.07;;;2.27;;
13204;SDS011;6667;52.634;9.226;2023-09-19T00:19:06;3.63;;;3.03;;
13204;SDS011;6667;52.634;9.226;2023-09-19T00:21:35;4.07;;;2.45;;
13204;SDS011;6667;52.634;9.226;2023-09-19T00:24:02;5.47;;;2.80;;
13204;SDS011;6667;52.634;9.226;2023-09-19T00:26:31;4.20;;;2.90;;
13204;SDS011;6667;52.634;9.226;2023-09-19T00:28:59;3.87;;;2.80;;
13204;SDS011;6667;52.634;9.226;2023-09-19T00:31:33;4.63;;;2.93;;
13204;SDS011;6667;52.634;9.226;2023-09-19T00:34:02;4.73;;;3.00;;
13204;SDS011;6667;52.634;9.226;2023-09-19T00:36:30;4.43;;;3.00;;
13204;SDS011;6667;52.634;9.226;2023-09-19T00:39:00;3.40;;;2.73;;
13204;SDS011;6667;52.634;9.226;2023-09-19T00:41:27;6.93;;;3.27;;
13204;SDS011;6667;52.634;9.226;2023-09-19T00:43:55;5.73;;;2.93;;
13204;SDS011;6667;52.634;9.226;2023-09-19T00:46:22;4.13;;;3.23;;
13204;SDS011;6667;52.634;9.226;2023-09-19T00:48:49;5.57;;;3.23;;
13204;SDS011;6667;52.634;9.226;2023-09-19T00:51:15;4.43;;;3.07;;
13204;SDS011;6667;52.634;9.226;2023-09-19T00:53:44;4.27;;;3.30;;
13204;SDS011;6667;52.634;9.226;2023-09-19T00:56:13;6.93;;;3.53;;
13204;SDS011;6667;52.634;9.226;2023-09-19T00:58:43;6.40;;;3.10;;
13204;SDS011;6667;52.634;9.226;2023-09-19T01:01:11;5.23;;;3.13;;
13204;SDS011;6667;52.634;9.226;2023-09-19T01:03:39;5.60;;;2.90;;
13204;SDS011;6667;52.634;9.226;2023-09-19T01:06:06;5.63;;;3.63;;
13204;SDS011;6667;52.634;9.226;2023-09-19T01:08:33;8.03;;;3.83;;
13204;SDS011;6667;52.634;9.226;2023-09-19T01:11:03;5.03;;;3.43;;
13204;SDS011;6667;52.634;9.226;2023-09-19T01:13:41;4.77;;;3.07;;
13204;SDS011;6667;52.634;9.226;2023-09-19T01:16:19;5.53;;;3.00;;
13204;SDS011;6667;52.634;9.226;2023-09-19T01:18:55;4.83;;;2.87;;
13204;SDS011;6667;52.634;9.226;2023-09-19T01:21:35;6.23;;;3.40;;
13204;SDS011;6667;52.634;9.226;2023-09-19T01:24:22;6.33;;;3.27;;
13204;SDS011;6667;52.634;9.226;2023-09-19T01:27:06;5.47;;;3.20;;
13204;SDS011;6667;52.634;9.226;2023-09-19T01:29:50;9.77;;;3.10;;
13204;SDS011;6667;52.634;9.226;2023-09-19T01:32:20;6.57;;;3.20;;
13204;SDS011;6667;52.634;9.226;2023-09-19T01:34:50;7.50;;;3.10;;
13204;SDS011;6667;52.634;9.226;2023-09-19T01:37:19;4.93;;;2.73;;
13204;SDS011;6667;52.634;9.226;2023-09-19T01:39:51;9.27;;;3.10;;
13204;SDS011;6667;52.634;9.226;2023-09-19T01:42:24;5.13;;;3.10;;
13204;SDS011;6667;52.634;9.226;2023-09-19T01:44:59;8.60;;;3.10;;
13204;SDS011;6667;52.634;9.226;2023-09-19T01:47:33;4.57;;;2.70;;
13204;SDS011;6667;52.634;9.226;2023-09-19T01:50:03;7.23;;;2.70;;
13204;SDS011;6667;52.634;9.226;2023-09-19T01:52:39;4.47;;;2.90;;
13204;SDS011;6667;52.634;9.226;2023-09-19T01:55:11;5.73;;;2.83;;
13204;SDS011;6667;52.634;9.226;2023-09-19T01:57:42;6.53;;;2.67;;
13204;SDS011;6667;52.634;9.226;2023-09-19T02:00:16;6.43;;;3.03;;
13204;SDS011;6667;52.634;9.226;2023-09-19T02:02:48;4.77;;;2.20;;
13204;SDS011;6667;52.634;9.226;2023-09-19T02:05:21;3.57;;;2.70;;
13204;SDS011;6667;52.634;9.226;2023-09-19T02:07:49;4.75;;;2.60;;
13204;SDS011;6667;52.634;9.226;2023-09-19T02:10:16;7.67;;;2.73;;
13204;SDS011;6667;52.634;9.226;2023-09-19T02:12:43;7.97;;;3.05;;
13204;SDS011;6667;52.634;9.226;2023-09-19T02:15:09;4.40;;;2.30;;
13204;SDS011;6667;52.634;9.226;2023-09-19T02:17:36;5.23;;;2.53;;
13204;SDS011;6667;52.634;9.226;2023-09-19T02:20:05;6.57;;;2.73;;
13204;SDS011;6667;52.634;9.226;2023-09-19T02:22:35;6.30;;;2.53;;
13204;SDS011;6667;52.634;9.226;2023-09-19T02:25:01;8.00;;;3.00;;
13204;SDS011;6667;52.634;9.226;2023-09-19T02:27:29;6.67;;;3.10;;
13204;SDS011;6667;52.634;9.226;2023-09-19T02:29:56;4.57;;;2.27;;
13204;SDS011;6667;52.634;9.226;2023-09-19T02:32:23;3.70;;;2.30;;
13204;SDS011;6667;52.634;9.226;2023-09-19T02:34:50;8.20;;;2.30;;
13204;SDS011;6667;52.634;9.226;2023-09-19T02:37:18;6.87;;;2.30;;
13204;SDS011;6667;52.634;9.226;2023-09-19T02:39:45;10.13;;;2.63;;
13204;SDS011;6667;52.634;9.226;2023-09-19T02:42:11;8.50;;;3.30;;
13204;SDS011;6667;52.634;9.226;2023-09-19T02:44:38;8.57;;;2.60;;
13204;SDS011;6667;52.634;9.226;2023-09-19T02:47:05;6.27;;;2.83;;
13204;SDS011;6667;52.634;9.226;2023-09-19T02:49:32;10.37;;;2.87;;
13204;SDS011;6667;52.634;9.226;2023-09-19T02:51:59;4.87;;;1.97;;
13204;SDS011;6667;52.634;9.226;2023-09-19T02:54:29;7.13;;;2.77;;
13204;SDS011;6667;52.634;9.226;2023-09-19T02:56:56;8.33;;;2.80;;
13204;SDS011;6667;52.634;9.226;2023-09-19T02:59:23;5.07;;;2.40;;
13204;SDS011;6667;52.634;9.226;2023-09-19T03:01:50;6.87;;;2.80;;
13204;SDS011;6667;52.634;9.226;2023-09-19T03:04:19;5.40;;;2.83;;
13204;SDS011;6667;52.634;9.226;2023-09-19T03:06:45;5.03;;;2.27;;
13204;SDS011;6667;52.634;9.226;2023-09-19T03:09:13;5.90;;;2.47;;
13204;SDS011;6667;52.634;9.226;2023-09-19T03:11:42;6.43;;;2.67;;
13204;SDS011;6667;52.634;9.226;2023-09-19T03:14:09;4.67;;;2.13;;
13204;SDS011;6667;52.634;9.226;2023-09-19T03:16:37;6.87;;;2.63;;
13204;SDS011;6667;52.634;9.226;2023-09-19T03:19:04;5.47;;;2.00;;
13204;SDS011;6667;52.634;9.226;2023-09-19T03:21:30;6.30;;;3.40;;
13204;SDS011;6667;52.634;9.226;2023-09-19T03:23:57;6.30;;;2.40;;
13204;SDS011;6667;52.634;9.226;2023-09-19T03:26:24;6.60;;;2.73;;
13204;SDS011;6667;52.634;9.226;2023-09-19T03:28:52;9.67;;;2.33;;
13204;SDS011;6667;52.634;9.226;2023-09-19T03:31:19;8.80;;;2.33;;
13204;SDS011;6667;52.634;9.226;2023-09-19T03:33:46;5.37;;;2.30;;
13204;SDS011;6667;52.634;9.226;2023-09-19T03:36:13;8.70;;;2.67;;
13204;SDS011;6667;52.634;9.226;2023-09-19T03:38:39;5.78;;;1.92;;
13204;SDS011;6667;52.634;9.226;2023-09-19T03:41:06;6.50;;;2.30;;
13204;SDS011;6667;52.634;9.226;2023-09-19T03:43:33;5.80;;;2.87;;
13204;SDS011;6667;52.634;9.226;2023-09-19T03:46:02;10.20;;;3.03;;
13204;SDS011;6667;52.634;9.226;2023-09-19T03:48:29;7.03;;;2.40;;
13204;SDS011;6667;52.634;9.226;2023-09-19T03:50:56;5.20;;;2.47;;
13204;SDS011;6667;52.634;9.226;2023-09-19T03:53:23;7.70;;;2.50;;
13204;SDS011;6667;52.634;9.226;2023-09-19T03:55:50;7.23;;;2.00;;
13204;SDS011;6667;52.634;9.226;2023-09-19T03:58:17;11.33;;;2.47;;
13204;SDS011;6667;52.634;9.226;2023-09-19T04:00:44;6.83;;;2.67;;
13204;SDS011;6667;52.634;9.226;2023-09-19T04:03:11;7.57;;;2.33;;
13204;SDS011;6667;52.634;9.226;2023-09-19T04:05:44;5.03;;;2.30;;
13204;SDS011;6667;52.634;9.226;2023-09-19T04:08:11;6.57;;;2.80;;
13204;SDS011;6667;52.634;9.226;2023-09-19T04:10:38;10.60;;;3.23;;
13204;SDS011;6667;52.634;9.226;2023-09-19T04:13:05;10.10;;;2.50;;
13204;SDS011;6667;52.634;9.226;2023-09-19T04:15:32;6.30;;;2.70;;
13204;SDS011;6667;52.634;9.226;2023-09-19T04:17:59;5.03;;;2.20;;
13204;SDS011;6667;52.634;9.226;2023-09-19T04:20:27;5.00;;;2.20;;
13204;SDS011;6667;52.634;9.226;2023-09-19T04:22:53;4.97;;;2.43;;
13204;SDS011;6667;52.634;9.226;2023-09-19T04:25:20;6.30;;;2.33;;
13204;SDS011;6667;52.634;9.226;2023-09-19T04:27:47;9.17;;;3.40;;
13204;SDS011;6667;52.634;9.226;2023-09-19T04:30:14;7.03;;;2.60;;
13204;SDS011;6667;52.634;9.226;2023-09-19T04:32:41;4.83;;;2.00;;
13204;SDS011;6667;52.634;9.226;2023-09-19T04:35:08;6.40;;;2.40;;
13204;SDS011;6667;52.634;9.226;2023-09-19T04:37:37;9.53;;;3.07;;
13204;SDS011;6667;52.634;9.226;2023-09-19T04:40:06;8.87;;;2.47;;
13204;SDS011;6667;52.634;9.226;2023-09-19T04:42:37;7.77;;;3.30;;
13204;SDS011;6667;52.634;9.226;2023-09-19T04:45:05;8.33;;;2.53;;
13204;SDS011;6667;52.634;9.226;2023-09-19T04:47:34;5.53;;;2.30;;
13204;SDS011;6667;52.634;9.226;2023-09-19T04:50:01;10.23;;;3.73;;
13204;SDS011;6667;52.634;9.226;2023-09-19T04:52:30;8.77;;;3.07;;
13204;SDS011;6667;52.634;9.226;2023-09-19T04:54:58;5.17;;;2.87;;
13204;SDS011;6667;52.634;9.226;2023-09-19T04:57:25;6.70;;;2.80;;
13204;SDS011;6667;52.634;9.226;2023-09-19T04:59:53;6.87;;;2.53;;
13204;SDS011;6667;52.634;9.226;2023-09-19T05:02:20;4.67;;;3.07;;
13204;SDS011;6667;52.634;9.226;2023-09-19T05:04:47;6.70;;;2.73;;
13204;SDS011;6667;52.634;9.226;2023-09-19T05:07:14;7.53;;;2.93;;
13204;SDS011;6667;52.634;9.226;2023-09-19T05:09:40;6.33;;;2.50;;
13204;SDS011;6667;52.634;9.226;2023-09-19T05:12:08;10.37;;;3.03;;
13204;SDS011;6667;52.634;9.226;2023-09-19T05:14:35;7.57;;;2.60;;
13204;SDS011;6667;52.634;9.226;2023-09-19T05:17:02;5.83;;;2.90;;
13204;SDS011;6667;52.634;9.226;2023-09-19T05:19:29;6.50;;;2.50;;
13204;SDS011;6667;52.634;9.226;2023-09-19T05:21:56;7.43;;;2.97;;
13204;SDS011;6667;52.634;9.226;2023-09-19T05:24:23;6.83;;;3.13;;
13204;SDS011;6667;52.634;9.226;2023-09-19T05:26:51;6.13;;;2.53;;
13204;SDS011;6667;52.634;9.226;2023-09-19T05:29:19;8.13;;;3.23;;
13204;SDS011;6667;52.634;9.226;2023-09-19T05:31:46;7.80;;;3.20;;
13204;SDS011;6667;52.634;9.226;2023-09-19T05:34:12;8.70;;;3.47;;
13204;SDS011;6667;52.634;9.226;2023-09-19T05:36:39;7.93;;;3.50;;
13204;SDS011;6667;52.634;9.226;2023-09-19T05:39:06;11.30;;;3.80;;
13204;SDS011;6667;52.634;9.226;2023-09-19T05:41:34;8.50;;;3.70;;
13204;SDS011;6667;52.634;9.226;2023-09-19T05:44:01;12.27;;;3.30;;
13204;SDS011;6667;52.634;9.226;2023-09-19T05:46:29;8.40;;;3.43;;
13204;SDS011;6667;52.634;9.226;2023-09-19T05:48:56;7.97;;;3.70;;
13204;SDS011;6667;52.634;9.226;2023-09-19T05:51:23;7.53;;;3.30;;
13204;SDS011;6667;52.634;9.226;2023-09-19T05:53:53;7.67;;;3.23;;
13204;SDS011;6667;52.634;9.226;2023-09-19T05:56:20;10.50;;;4.00;;
13204;SDS011;6667;52.634;9.226;2023-09-19T05:58:47;9.43;;;3.57;;
13204;SDS011;6667;52.634;9.226;2023-09-19T06:01:14;5.13;;;3.17;;
13204;SDS011;6667;52.634;9.226;2023-09-19T06:03:42;8.07;;;3.50;;
13204;SDS011;6667;52.634;9.226;2023-09-19T06:06:09;8.03;;;3.23;;
13204;SDS011;6667;52.634;9.226;2023-09-19T06:08:36;6.37;;;3.17;;
13204;SDS011;6667;52.634;9.226;2023-09-19T06:11:02;10.33;;;3.90;;
13204;SDS011;6667;52.634;9.226;2023-09-19T06:13:34;7.73;;;3.07;;
13204;SDS011;6667;52.634;9.226;2023-09-19T06:16:01;7.63;;;3.33;;
13204;SDS011;6667;52.634;9.226;2023-09-19T06:18:30;9.57;;;3.33;;
13204;SDS011;6667;52.634;9.226;2023-09-19T06:21:00;5.93;;;2.80;;
13204;SDS011;6667;52.634;9.226;2023-09-19T06:23:30;8.37;;;3.70;;
13204;SDS011;6667;52.634;9.226;2023-09-19T06:25:57;8.63;;;2.40;;
13204;SDS011;6667;52.634;9.226;2023-09-19T06:28:23;7.00;;;2.77;;
13204;SDS011;6667;52.634;9.226;2023-09-19T06:30:53;6.93;;;2.83;;
13204;SDS011;6667;52.634;9.226;2023-09-19T06:33:20;6.33;;;2.70;;
13204;SDS011;6667;52.634;9.226;2023-09-19T06:35:49;9.73;;;2.80;;
13204;SDS011;6667;52.634;9.226;2023-09-19T06:38:19;8.53;;;2.70;;
13204;SDS011;6667;52.634;9.226;2023-09-19T06:40:46;10.63;;;2.50;;
13204;SDS011;6667;52.634;9.226;2023-09-19T06:43:13;7.57;;;3.27;;
13204;SDS011;6667;52.634;9.226;2023-09-19T06:45:39;6.80;;;2.63;;
13204;SDS011;6667;52.634;9.226;2023-09-19T06:48:07;8.27;;;2.70;;
13204;SDS011;6667;52.634;9.226;2023-09-19T06:50:35;7.70;;;2.97;;
13204;SDS011;6667;52.634;9.226;2023-09-19T06:53:02;8.03;;;2.60;;
13204;SDS011;6667;52.634;9.226;2023-09-19T06:55:30;7.60;;;2.30;;
13204;SDS011;6667;52.634;9.226;2023-09-19T06:57:57;8.07;;;2.27;;
13204;SDS011;6667;52.634;9.226;2023-09-19T07:00:24;7.80;;;2.30;;
13204;SDS011;6667;52.634;9.226;2023-09-19T07:02:54;6.03;;;2.40;;
13204;SDS011;6667;52.634;9.226;2023-09-19T07:05:22;9.35;;;2.53;;
13204;SDS011;6667;52.634;9.226;2023-09-19T07:07:49;5.43;;;2.10;;
13204;SDS011;6667;52.634;9.226;2023-09-19T07:10:16;6.13;;;1.98;;
13204;SDS011;6667;52.634;9.226;2023-09-19T07:12:56;7.87;;;2.10;;
13204;SDS011;6667;52.634;9.226;2023-09-19T07:15:23;7.87;;;2.40;;
13204;SDS011;6667;52.634;9.226;2023-09-19T07:17:51;5.73;;;2.63;;
13204;SDS011;6667;52.634;9.226;2023-09-19T07:20:18;9.43;;;2.60;;
13204;SDS011;6667;52.634;9.226;2023-09-19T07:22:53;8.80;;;2.30;;
13204;SDS011;6667;52.634;9.226;2023-09-19T07:25:21;9.63;;;3.03;;
13204;SDS011;6667;52.634;9.226;2023-09-19T07:27:48;9.63;;;2.20;;
13204;SDS011;6667;52.634;9.226;2023-09-19T07:30:17;6.60;;;2.20;;
13204;SDS011;6667;52.634;9.226;2023-09-19T07:32:44;10.05;;;2.15;;
13204;SDS011;6667;52.634;9.226;2023-09-19T07:35:11;10.60;;;2.17;;
13204;SDS011;6667;52.634;9.226;2023-09-19T07:37:38;9.43;;;2.53;;
13204;SDS011;6667;52.634;9.226;2023-09-19T07:40:05;6.73;;;2.40;;
13204;SDS011;6667;52.634;9.226;2023-09-19T07:42:36;8.18;;;2.25;;
13204;SDS011;6667;52.634;9.226;2023-09-19T07:45:06;8.45;;;2.30;;
13204;SDS011;6667;52.634;9.226;2023-09-19T07:47:35;6.32;;;1.65;;
13204;SDS011;6667;52.634;9.226;2023-09-19T07:50:02;6.00;;;2.45;;
13204;SDS011;6667;52.634;9.226;2023-09-19T07:52:29;10.32;;;2.00;;
13204;SDS011;6667;52.634;9.226;2023-09-19T07:54:58;8.07;;;1.92;;
13204;SDS011;6667;52.634;9.226;2023-09-19T07:57:26;5.85;;;1.77;;
13204;SDS011;6667;52.634;9.226;2023-09-19T07:59:54;9.13;;;2.38;;
13204;SDS011;6667;52.634;9.226;2023-09-19T08:02:20;6.85;;;2.03;;
13204;SDS011;6667;52.634;9.226;2023-09-19T08:04:49;8.98;;;2.67;;
13204;SDS011;6667;52.634;9.226;2023-09-19T08:07:17;9.35;;;2.90;;
13204;SDS011;6667;52.634;9.226;2023-09-19T08:09:44;5.57;;;1.98;;
13204;SDS011;6667;52.634;9.226;2023-09-19T08:12:17;5.13;;;2.13;;
13204;SDS011;6667;52.634;9.226;2023-09-19T08:14:49;8.55;;;2.08;;
13204;SDS011;6667;52.634;9.226;2023-09-19T08:17:16;5.88;;;1.67;;
13204;SDS011;6667;52.634;9.226;2023-09-19T08:19:45;7.90;;;1.70;;
13204;SDS011;6667;52.634;9.226;2023-09-19T08:22:49;5.45;;;1.90;;
13204;SDS011;6667;52.634;9.226;2023-09-19T08:25:17;5.97;;;2.00;;
13204;SDS011;6667;52.634;9.226;2023-09-19T08:27:52;5.43;;;1.80;;
13204;SDS011;6667;52.634;9.226;2023-09-19T08:30:22;4.80;;;1.65;;
13204;SDS011;6667;52.634;9.226;2023-09-19T08:32:49;7.25;;;2.42;;
13204;SDS011;6667;52.634;9.226;2023-09-19T08:35:18;6.20;;;1.67;;
13204;SDS011;6667;52.634;9.226;2023-09-19T08:38:27;6.20;;;1.88;;
13204;SDS011;6667;52.634;9.226;2023-09-19T08:40:57;3.72;;;1.80;;
13204;SDS011;6667;52.634;9.226;2023-09-19T08:43:24;10.07;;;1.80;;
13204;SDS011;6667;52.634;9.226;2023-09-19T08:45:53;11.55;;;2.25;;
13204;SDS011;6667;52.634;9.226;2023-09-19T08:48:28;8.50;;;2.45;;
13204;SDS011;6667;52.634;9.226;2023-09-19T08:51:00;6.93;;;1.75;;
13204;SDS011;6667;52.634;9.226;2023-09-19T08:53:35;6.90;;;1.90;;
13204;SDS011;6667;52.634;9.226;2023-09-19T08:56:08;4.88;;;1.90;;
13204;SDS011;6667;52.634;9.226;2023-09-19T08:59:24;4.35;;;1.83;;
13204;SDS011;6667;52.634;9.226;2023-09-19T09:02:34;7.38;;;2.03;;
13204;SDS011;6667;52.634;9.226;2023-09-19T09:05:00;5.03;;;1.80;;
13204;SDS011;6667;52.634;9.226;2023-09-19T09:07:28;5.43;;;1.75;;
13204;SDS011;6667;52.634;9.226;2023-09-19T09:09:57;6.22;;;1.85;;
13204;SDS011;6667;52.634;9.226;2023-09-19T09:12:24;8.25;;;1.92;;
13204;SDS011;6667;52.634;9.226;2023-09-19T09:15:02;5.90;;;1.77;;
13204;SDS011;6667;52.634;9.226;2023-09-19T09:18:48;6.30;;;2.28;;
13204;SDS011;6667;52.634;9.226;2023-09-19T09:20:51;7.40;;;2.33;;
13204;SDS011;6667;52.634;9.226;2023-09-19T09:26:44;4.00;;;1.75;;
13204;SDS011;6667;52.634;9.226;2023-09-19T09:29:18;5.95;;;1.60;;
13204;SDS011;6667;52.634;9.226;2023-09-19T09:42:32;6.13;;;1.80;;
13204;SDS011;6667;52.634;9.226;2023-09-19T09:45:14;5.32;;;2.10;;
13204;SDS011;6667;52.634;9.226;2023-09-19T09:47:42;6.68;;;2.20;;
13204;SDS011;6667;52.634;9.226;2023-09-19T09:50:28;8.65;;;1.67;;
13204;SDS011;6667;52.634;9.226;2023-09-19T09:53:05;3.30;;;1.60;;
13204;SDS011;6667;52.634;9.226;2023-09-19T09:55:59;4.93;;;1.85;;
13204;SDS011;6667;52.634;9.226;2023-09-19T09:58:29;4.45;;;1.55;;
13204;SDS011;6667;52.634;9.226;2023-09-19T10:00:57;4.80;;;1.92;;
13204;SDS011;6667;52.634;9.226;2023-09-19T10:03:31;5.47;;;1.80;;
13204;SDS011;6667;52.634;9.226;2023-09-19T10:23:32;4.88;;;2.08;;
13204;SDS011;6667;52.634;9.226;2023-09-19T10:42:54;3.45;;;1.80;;
13204;SDS011;6667;52.634;9.226;2023-09-19T10:48:14;5.50;;;2.40;;
13204;SDS011;6667;52.634;9.226;2023-09-19T10:50:45;6.35;;;2.60;;
13204;SDS011;6667;52.634;9.226;2023-09-19T10:53:16;4.88;;;1.85;;
13204;SDS011;6667;52.634;9.226;2023-09-19T10:55:49;6.78;;;1.95;;
13204;SDS011;6667;52.634;9.226;2023-09-19T10:58:28;6.20;;;2.28;;
13204;SDS011;6667;52.634;9.226;2023-09-19T11:01:06;5.43;;;2.33;;
13204;SDS011;6667;52.634;9.226;2023-09-19T11:03:40;6.25;;;2.00;;
13204;SDS011;6667;52.634;9.226;2023-09-19T11:06:10;4.55;;;1.88;;
13204;SDS011;6667;52.634;9.226;2023-09-19T11:08:51;6.72;;;2.22;;
13204;SDS011;6667;52.634;9.226;2023-09-19T11:14:39;6.22;;;1.95;;
13204;SDS011;6667;52.634;9.226;2023-09-19T11:23:17;5.60;;;2.17;;
13204;SDS011;6667;52.634;9.226;2023-09-19T11:25:54;5.78;;;2.13;;
13204;SDS011;6667;52.634;9.226;2023-09-19T11:28:29;4.22;;;2.10;;
13204;SDS011;6667;52.634;9.226;2023-09-19T11:40:52;6.28;;;2.13;;
13204;SDS011;6667;52.634;9.226;2023-09-19T12:00:39;8.70;;;2.45;;
13204;SDS011;6667;52.634;9.226;2023-09-19T12:03:09;5.05;;;2.17;;
13204;SDS011;6667;52.634;9.226;2023-09-19T12:05:36;6.18;;;2.08;;
13204;SDS011;6667;52.634;9.226;2023-09-19T12:08:05;6.30;;;2.45;;
13204;SDS011;6667;52.634;9.226;2023-09-19T12:10:34;4.97;;;2.17;;
13204;SDS011;6667;52.634;9.226;2023-09-19T12:13:15;6.35;;;2.50;;
13204;SDS011;6667;52.634;9.226;2023-09-19T12:15:43;7.15;;;2.70;;
13204;SDS011;6667;52.634;9.226;2023-09-19T12:18:25;8.25;;;2.55;;
13204;SDS011;6667;52.634;9.226;2023-09-19T12:20:52;4.07;;;1.95;;
13204;SDS011;6667;52.634;9.226;2023-09-19T12:23:21;8.10;;;2.63;;
13204;SDS011;6667;52.634;9.226;2023-09-19T12:25:48;5.93;;;2.10;;
13204;SDS011;6667;52.634;9.226;2023-09-19T12:28:18;4.60;;;2.75;;
13204;SDS011;6667;52.634;9.226;2023-09-19T12:30:46;8.50;;;2.80;;
13204;SDS011;6667;52.634;9.226;2023-09-19T12:33:15;5.90;;;2.42;;
13204;SDS011;6667;52.634;9.226;2023-09-19T12:35:44;3.92;;;2.40;;
13204;SDS011;6667;52.634;9.226;2023-09-19T12:38:10;7.32;;;2.60;;
13204;SDS011;6667;52.634;9.226;2023-09-19T12:40:50;4.07;;;2.45;;
13204;SDS011;6667;52.634;9.226;2023-09-19T12:43:18;4.20;;;2.05;;
13204;SDS011;6667;52.634;9.226;2023-09-19T12:45:45;10.43;;;2.42;;
13204;SDS011;6667;52.634;9.226;2023-09-19T12:48:19;4.97;;;2.25;;
13204;SDS011;6667;52.634;9.226;2023-09-19T12:51:03;6.80;;;2.67;;
13204;SDS011;6667;52.634;9.226;2023-09-19T12:53:33;5.85;;;2.25;;
13204;SDS011;6667;52.634;9.226;2023-09-19T12:56:04;8.35;;;2.00;;
13204;SDS011;6667;52.634;9.226;2023-09-19T12:58:33;7.68;;;2.50;;
13204;SDS011;6667;52.634;9.226;2023-09-19T13:01:13;6.47;;;2.28;;
13204;SDS011;6667;52.634;9.226;2023-09-19T13:03:40;12.25;;;4.05;;
13204;SDS011;6667;52.634;9.226;2023-09-19T13:06:07;4.22;;;2.25;;
13204;SDS011;6667;52.634;9.226;2023-09-19T13:08:35;6.20;;;2.30;;
13204;SDS011;6667;52.634;9.226;2023-09-19T13:11:05;5.82;;;2.22;;
13204;SDS011;6667;52.634;9.226;2023-09-19T13:13:36;5.95;;;2.20;;
13204;SDS011;6667;52.634;9.226;2023-09-19T13:16:04;9.85;;;2.65;;
13204;SDS011;6667;52.634;9.226;2023-09-19T13:18:41;4.63;;;2.25;;
13204;SDS011;6667;52.634;9.226;2023-09-19T13:21:10;4.53;;;1.90;;
13204;SDS011;6667;52.634;9.226;2023-09-19T13:23:40;7.45;;;2.42;;
13204;SDS011;6667;52.634;9.226;2023-09-19T13:26:09;8.52;;;3.00;;
13204;SDS011;6667;52.634;9.226;2023-09-19T13:28:37;6.00;;;2.42;;
13204;SDS011;6667;52.634;9.226;2023-09-19T13:31:04;5.20;;;2.60;;
13204;SDS011;6667;52.634;9.226;2023-09-19T13:33:31;7.28;;;1.70;;
13204;SDS011;6667;52.634;9.226;2023-09-19T13:36:00;5.57;;;2.38;;
13204;SDS011;6667;52.634;9.226;2023-09-19T13:38:27;6.63;;;2.33;;
13204;SDS011;6667;52.634;9.226;2023-09-19T13:40:54;7.03;;;2.05;;
13204;SDS011;6667;52.634;9.226;2023-09-19T13:43:22;5.90;;;1.92;;
13204;SDS011;6667;52.634;9.226;2023-09-19T13:45:50;6.00;;;2.00;;
13204;SDS011;6667;52.634;9.226;2023-09-19T13:48:17;5.05;;;2.20;;
13204;SDS011;6667;52.634;9.226;2023-09-19T13:50:45;3.35;;;1.85;;
13204;SDS011;6667;52.634;9.226;2023-09-19T13:53:11;6.28;;;1.90;;
13204;SDS011;6667;52.634;9.226;2023-09-19T13:55:38;4.30;;;1.65;;
13204;SDS011;6667;52.634;9.226;2023-09-19T13:58:06;5.50;;;1.98;;
13204;SDS011;6667;52.634;9.226;2023-09-19T14:00:37;6.28;;;2.10;;
13204;SDS011;6667;52.634;9.226;2023-09-19T14:03:04;6.53;;;2.42;;
13204;SDS011;6667;52.634;9.226;2023-09-19T14:05:31;6.68;;;2.03;;
13204;SDS011;6667;52.634;9.226;2023-09-19T14:07:57;5.50;;;2.00;;
13204;SDS011;6667;52.634;9.226;2023-09-19T14:10:25;7.60;;;1.90;;
13204;SDS011;6667;52.634;9.226;2023-09-19T14:12:52;9.63;;;2.20;;
13204;SDS011;6667;52.634;9.226;2023-09-19T14:15:19;6.18;;;2.08;;
13204;SDS011;6667;52.634;9.226;2023-09-19T14:17:55;6.93;;;2.63;;
13204;SDS011;6667;52.634;9.226;2023-09-19T14:20:24;4.47;;;1.85;;
13204;SDS011;6667;52.634;9.226;2023-09-19T14:22:51;5.97;;;1.90;;
13204;SDS011;6667;52.634;9.226;2023-09-19T14:25:18;7.22;;;2.45;;
13204;SDS011;6667;52.634;9.226;2023-09-19T14:27:46;9.65;;;2.42;;
13204;SDS011;6667;52.634;9.226;2023-09-19T14:30:13;2.80;;;1.52;;
13204;SDS011;6667;52.634;9.226;2023-09-19T14:32:40;6.57;;;2.22;;
13204;SDS011;6667;52.634;9.226;2023-09-19T14:35:08;4.38;;;2.13;;
13204;SDS011;6667;52.634;9.226;2023-09-19T14:37:35;5.55;;;1.60;;
13204;SDS011;6667;52.634;9.226;2023-09-19T14:40:03;9.43;;;2.28;;
13204;SDS011;6667;52.634;9.226;2023-09-19T14:42:34;3.95;;;1.80;;
13204;SDS011;6667;52.634;9.226;2023-09-19T14:45:03;7.00;;;2.15;;
13204;SDS011;6667;52.634;9.226;2023-09-19T14:47:31;5.40;;;1.52;;
13204;SDS011;6667;52.634;9.226;2023-09-19T14:49:59;5.18;;;1.92;;
13204;SDS011;6667;52.634;9.226;2023-09-19T14:52:27;2.72;;;1.85;;
13204;SDS011;6667;52.634;9.226;2023-09-19T14:54:54;7.78;;;2.03;;
13204;SDS011;6667;52.634;9.226;2023-09-19T14:57:21;4.45;;;1.70;;
13204;SDS011;6667;52.634;9.226;2023-09-19T14:59:49;4.88;;;1.63;;
13204;SDS011;6667;52.634;9.226;2023-09-19T15:02:16;4.30;;;1.75;;
13204;SDS011;6667;52.634;9.226;2023-09-19T15:04:43;6.15;;;1.83;;
13204;SDS011;6667;52.634;9.226;2023-09-19T15:07:09;4.15;;;1.63;;
13204;SDS011;6667;52.634;9.226;2023-09-19T15:09:37;7.38;;;2.00;;
13204;SDS011;6667;52.634;9.226;2023-09-19T15:12:05;4.75;;;1.55;;
13204;SDS011;6667;52.634;9.226;2023-09-19T15:14:32;5.60;;;1.52;;
13204;SDS011;6667;52.634;9.226;2023-09-19T15:16:58;3.00;;;1.40;;
13204;SDS011;6667;52.634;9.226;2023-09-19T15:19:25;4.68;;;1.63;;
13204;SDS011;6667;52.634;9.226;2023-09-19T15:21:52;5.63;;;1.73;;
13204;SDS011;6667;52.634;9.226;2023-09-19T15:24:19;6.65;;;1.80;;
13204;SDS011;6667;52.634;9.226;2023-09-19T15:26:47;3.00;;;1.25;;
13204;SDS011;6667;52.634;9.226;2023-09-19T15:29:15;6.85;;;1.55;;
13204;SDS011;6667;52.634;9.226;2023-09-19T15:31:42;4.97;;;1.33;;
13204;SDS011;6667;52.634;9.226;2023-09-19T15:34:08;6.50;;;2.00;;
13204;SDS011;6667;52.634;9.226;2023-09-19T15:36:39;3.22;;;1.55;;
13204;SDS011;6667;52.634;9.226;2023-09-19T15:39:07;4.53;;;1.35;;
13204;SDS011;6667;52.634;9.226;2023-09-19T15:41:36;3.65;;;1.77;;
13204;SDS011;6667;52.634;9.226;2023-09-19T15:44:10;5.63;;;1.52;;
13204;SDS011;6667;52.634;9.226;2023-09-19T15:46:37;3.83;;;1.90;;
13204;SDS011;6667;52.634;9.226;2023-09-19T15:49:04;3.80;;;1.23;;
13204;SDS011;6667;52.634;9.226;2023-09-19T15:51:32;3.38;;;1.50;;
13204;SDS011;6667;52.634;9.226;2023-09-19T15:54:00;4.55;;;1.23;;
13204;SDS011;6667;52.634;9.226;2023-09-19T15:56:32;4.80;;;1.60;;
13204;SDS011;6667;52.634;9.226;2023-09-19T15:59:00;3.63;;;1.40;;
13204;SDS011;6667;52.634;9.226;2023-09-19T16:01:28;6.90;;;1.45;;
13204;SDS011;6667;52.634;9.226;2023-09-19T16:03:55;5.43;;;1.45;;
13204;SDS011;6667;52.634;9.226;2023-09-19T16:06:23;3.28;;;1.58;;
13204;SDS011;6667;52.634;9.226;2023-09-19T16:08:51;5.05;;;1.45;;
13204;SDS011;6667;52.634;9.226;2023-09-19T16:11:20;6.00;;;1.70;;
13204;SDS011;6667;52.634;9.226;2023-09-19T16:13:47;1.27;;;0.80;;
13204;SDS011;6667;52.634;9.226;2023-09-19T16:16:16;6.43;;;2.22;;
13204;SDS011;6667;52.634;9.226;2023-09-19T16:18:46;4.78;;;1.40;;
13204;SDS011;6667;52.634;9.226;2023-09-19T16:21:14;6.90;;;1.65;;
13204;SDS011;6667;52.634;9.226;2023-09-19T16:23:44;5.88;;;1.33;;
13204;SDS011;6667;52.634;9.226;2023-09-19T16:26:11;2.45;;;1.40;;
13204;SDS011;6667;52.634;9.226;2023-09-19T16:28:39;5.43;;;1.90;;
13204;SDS011;6667;52.634;9.226;2023-09-19T16:31:07;3.08;;;1.50;;
13204;SDS011;6667;52.634;9.226;2023-09-19T16:33:35;3.90;;;1.63;;
13204;SDS011;6667;52.634;9.226;2023-09-19T16:36:06;5.18;;;1.23;;
13204;SDS011;6667;52.634;9.226;2023-09-19T16:38:33;2.80;;;1.27;;
13204;SDS011;6667;52.634;9.226;2023-09-19T16:41:00;4.10;;;1.45;;
13204;SDS011;6667;52.634;9.226;2023-09-19T16:43:27;5.63;;;1.30;;